Time;durP1;ratioP1;P1;durP2;ratioP2;P2;SDS_P1;SDS_P2;PMS_P1;PMS_P2;Temp;Humidity;BMP_temperature;BMP_pressure;BME280_temperature;BME280_humidity;BME280_pressure;Samples;Min_cycle;Max_cycle;Signal;HPM_P1;HPM_P2
2022/12/30 00:01:08;;;;;;;0.60;0.60;;;7.40;99.90;;;;;;4947126;28;20545;-83
2022/12/30 00:03:34;;;;;;;0.60;0.60;;;7.40;99.90;;;;;;4950914;28;20846;-83
2022/12/30 00:06:01;;;;;;;0.60;0.60;;;7.40;99.90;;;;;;4936821;28;20075;-83
2022/12/30 00:11:11;;;;;;;0.60;0.60;;;7.30;99.90;;;;;;4950856;28;20136;-83
2022/12/30 00:34:06;;;;;;;0.60;0.60;;;7.20;99.90;;;;;;4939921;28;20156;-83
2022/12/30 00:36:33;;;;;;;0.60;0.60;;;7.20;99.90;;;;;;4943839;28;20152;-84
2022/12/30 00:38:59;;;;;;;0.60;0.60;;;7.20;99.90;;;;;;4942243;28;20068;-83
2022/12/30 00:44:11;;;;;;;0.60;0.60;;;7.20;99.90;;;;;;4932791;28;20734;-83
2022/12/30 00:46:39;;;;;;;0.60;0.60;;;7.10;99.90;;;;;;4946328;28;20037;-83
2022/12/30 00:57:18;;;;;;;0.60;0.60;;;7.00;99.90;;;;;;4958464;28;20420;-83
2022/12/30 00:59:44;;;;;;;0.60;0.60;;;6.90;99.90;;;;;;4946674;28;20432;-84
2022/12/30 01:02:10;;;;;;;0.60;0.60;;;7.00;99.90;;;;;;4942387;28;20504;-84
2022/12/30 01:04:35;;;;;;;0.60;0.60;;;6.90;99.90;;;;;;4951560;28;20211;-84
2022/12/30 01:07:02;;;;;;;0.60;0.60;;;6.90;99.90;;;;;;4924226;28;20103;-83
2022/12/30 01:09:27;;;;;;;0.60;0.60;;;6.80;99.90;;;;;;4940386;28;20147;-82
2022/12/30 01:12:08;;;;;;;0.70;0.70;;;6.80;99.90;;;;;;4945042;28;20062;-83
2022/12/30 01:14:49;;;;;;;0.60;0.60;;;6.80;99.90;;;;;;4955435;28;20266;-84
2022/12/30 01:17:28;;;;;;;0.60;0.60;;;6.70;99.90;;;;;;4955223;28;20037;-84
2022/12/30 01:19:54;;;;;;;0.60;0.60;;;6.80;99.90;;;;;;4939973;28;20041;-84
2022/12/30 01:22:20;;;;;;;0.60;0.60;;;6.70;99.90;;;;;;4925130;28;20463;-84
2022/12/30 01:24:45;;;;;;;0.70;0.70;;;6.70;99.90;;;;;;4951118;28;20128;-83
2022/12/30 01:27:12;;;;;;;0.60;0.60;;;6.70;99.90;;;;;;4940675;28;20576;-85
2022/12/30 01:29:40;;;;;;;0.70;0.70;;;6.70;99.90;;;;;;4940452;28;20049;-83
2022/12/30 01:32:11;;;;;;;0.60;0.60;;;6.70;99.90;;;;;;4945769;28;20052;-82
2022/12/30 01:34:38;;;;;;;0.70;0.70;;;6.70;99.90;;;;;;4941497;28;20045;-84
2022/12/30 01:37:05;;;;;;;0.60;0.60;;;6.70;99.90;;;;;;4929222;28;20160;-83
2022/12/30 01:39:31;;;;;;;0.60;0.60;;;6.60;99.90;;;;;;4945593;28;20057;-84
2022/12/30 01:41:57;;;;;;;0.70;0.70;;;6.50;99.90;;;;;;4948197;28;20045;-83
2022/12/30 01:44:51;;;;;;;0.60;0.60;;;6.60;99.90;;;;;;4947387;28;20053;-83
2022/12/30 01:47:55;;;;;;;0.70;0.70;;;6.60;99.90;;;;;;4932426;28;20049;-83
2022/12/30 01:50:27;;;;;;;0.60;0.60;;;6.50;99.90;;;;;;4908665;28;20049;-83
2022/12/30 01:53:20;;;;;;;0.60;0.60;;;6.60;99.90;;;;;;4940375;28;20431;-84
2022/12/30 01:56:07;;;;;;;0.60;0.60;;;6.50;99.90;;;;;;4924332;28;20088;-84
2022/12/30 01:58:47;;;;;;;0.60;0.60;;;6.50;99.90;;;;;;4940192;28;20045;-85
2022/12/30 02:01:14;;;;;;;0.65;0.65;;;6.50;99.90;;;;;;4929671;28;20099;-85
2022/12/30 02:03:44;;;;;;;0.70;0.70;;;6.40;99.90;;;;;;4912570;28;20440;-83
2022/12/30 02:06:13;;;;;;;0.60;0.60;;;6.40;99.90;;;;;;4944276;28;20077;-83
2022/12/30 02:08:39;;;;;;;0.60;0.60;;;6.40;99.90;;;;;;4946617;28;20437;-83
2022/12/30 02:11:06;;;;;;;0.60;0.60;;;6.40;99.90;;;;;;4930586;28;20667;-84
2022/12/30 02:13:32;;;;;;;0.70;0.70;;;6.40;99.90;;;;;;4938751;28;20745;-82
2022/12/30 02:16:01;;;;;;;0.60;0.60;;;6.40;99.90;;;;;;4941507;28;20045;-83
2022/12/30 02:19:00;;;;;;;0.60;0.60;;;6.30;99.90;;;;;;4946937;28;20055;-82
2022/12/30 02:21:29;;;;;;;0.60;0.60;;;6.40;99.90;;;;;;4928712;28;20092;-83
2022/12/30 02:24:19;;;;;;;0.70;0.70;;;6.40;99.90;;;;;;4942152;28;20053;-83
2022/12/30 02:26:54;;;;;;;0.70;0.70;;;6.40;99.90;;;;;;4938909;28;20061;-84
2022/12/30 02:29:49;;;;;;;0.60;0.60;;;6.30;99.90;;;;;;4939159;28;20052;-84
2022/12/30 02:32:27;;;;;;;0.60;0.60;;;6.20;99.90;;;;;;4939902;28;20128;-83
2022/12/30 02:34:55;;;;;;;0.60;0.60;;;6.30;99.90;;;;;;4932121;28;20512;-83
2022/12/30 02:37:43;;;;;;;0.60;0.60;;;6.20;99.90;;;;;;4939238;28;20050;-84
2022/12/30 02:40:28;;;;;;;0.60;0.60;;;6.30;99.90;;;;;;4947687;28;20041;-83
2022/12/30 02:46:04;;;;;;;0.60;0.60;;;6.30;99.90;;;;;;4939571;28;20730;-83
2022/12/30 02:48:34;;;;;;;0.60;0.60;;;6.30;99.90;;;;;;4936249;28;20049;-84
2022/12/30 02:53:46;;;;;;;0.60;0.60;;;6.20;99.90;;;;;;4955391;28;20037;-83
2022/12/30 02:56:11;;;;;;;0.60;0.60;;;6.10;99.90;;;;;;4944218;28;20056;-83
2022/12/30 02:58:43;;;;;;;0.70;0.70;;;6.00;99.90;;;;;;4940579;28;21002;-83
2022/12/30 03:04:56;;;;;;;0.60;0.60;;;6.00;99.90;;;;;;4946804;28;20057;-83
2022/12/30 03:07:36;;;;;;;0.63;0.63;;;6.10;99.90;;;;;;4930942;28;20111;-84
2022/12/30 03:13:14;;;;;;;0.60;0.60;;;6.00;99.90;;;;;;4947549;28;20135;-84
2022/12/30 03:15:52;;;;;;;0.60;0.60;;;6.10;99.90;;;;;;4927851;28;20069;-83
2022/12/30 03:18:20;;;;;;;0.60;0.60;;;6.10;99.90;;;;;;4941232;28;20053;-82
2022/12/30 03:20:47;;;;;;;0.70;0.70;;;6.10;99.90;;;;;;4940525;28;20545;-83
2022/12/30 03:28:48;;;;;;;0.60;0.60;;;6.10;99.90;;;;;;4931232;28;20407;-84
2022/12/30 03:31:16;;;;;;;0.60;0.60;;;6.10;99.90;;;;;;4950096;28;20072;-84
2022/12/30 03:33:42;;;;;;;0.60;0.60;;;6.10;99.90;;;;;;4951190;28;20041;-83
2022/12/30 03:36:16;;;;;;;0.60;0.60;;;6.00;99.90;;;;;;4948706;28;20433;-83
2022/12/30 03:39:00;;;;;;;0.60;0.60;;;6.00;99.90;;;;;;4944120;28;20114;-83
2022/12/30 03:41:27;;;;;;;;;;;5.90;99.90;;;;;;4945635;28;20100;-82
2022/12/30 03:43:54;;;;;;;0.60;0.60;;;5.80;99.90;;;;;;4947912;28;20003;-82
2022/12/30 03:46:25;;;;;;;0.60;0.60;;;5.90;99.90;;;;;;4965469;28;20058;-82
2022/12/30 03:48:50;;;;;;;0.60;0.60;;;5.90;99.90;;;;;;4948477;28;20045;-82
2022/12/30 03:51:16;;;;;;;0.60;0.60;;;5.80;99.90;;;;;;4939972;28;20585;-83
2022/12/30 03:53:42;;;;;;;0.60;0.60;;;5.80;99.90;;;;;;4931024;28;20678;-84
2022/12/30 03:56:08;;;;;;;0.60;0.60;;;5.80;99.90;;;;;;4950452;28;20059;-83
2022/12/30 03:58:34;;;;;;;0.60;0.60;;;5.80;99.90;;;;;;4953257;28;20844;-84
2022/12/30 04:00:59;;;;;;;0.60;0.60;;;5.80;99.90;;;;;;4943540;28;20041;-83
2022/12/30 04:03:25;;;;;;;0.70;0.70;;;5.80;99.90;;;;;;4928294;28;20064;-82
2022/12/30 04:05:55;;;;;;;0.63;0.63;;;5.70;99.90;;;;;;4945334;28;20043;-83
2022/12/30 04:08:22;;;;;;;0.60;0.60;;;5.80;99.90;;;;;;4950969;28;20042;-82
2022/12/30 04:10:49;;;;;;;0.60;0.60;;;5.70;99.90;;;;;;4952881;28;21124;-84
2022/12/30 04:13:15;;;;;;;0.60;0.60;;;5.80;99.90;;;;;;4952468;28;20076;-83
2022/12/30 04:15:41;;;;;;;0.60;0.60;;;5.70;99.90;;;;;;4940950;28;20054;-84
2022/12/30 04:18:07;;;;;;;0.60;0.60;;;5.70;99.90;;;;;;4946703;28;20056;-85
2022/12/30 04:20:36;;;;;;;0.60;0.60;;;5.80;99.90;;;;;;4929790;28;20467;-83
2022/12/30 04:23:02;;;;;;;0.60;0.60;;;5.80;99.90;;;;;;4920446;28;20114;-83
2022/12/30 04:25:28;;;;;;;0.60;0.60;;;5.80;99.90;;;;;;4941762;28;20553;-84
2022/12/30 04:27:54;;;;;;;0.60;0.60;;;5.80;99.90;;;;;;4931470;28;20471;-85
2022/12/30 04:30:20;;;;;;;0.60;0.60;;;5.80;99.90;;;;;;4949058;28;20053;-83
2022/12/30 04:32:45;;;;;;;0.60;0.60;;;5.80;99.90;;;;;;4946435;28;20060;-83
2022/12/30 04:35:11;;;;;;;0.60;0.60;;;5.80;99.90;;;;;;4916141;28;20733;-83
2022/12/30 04:37:37;;;;;;;0.60;0.60;;;5.80;99.90;;;;;;4946655;28;20275;-84
2022/12/30 04:40:04;;;;;;;0.60;0.60;;;5.80;99.90;;;;;;4944426;28;20053;-84
2022/12/30 04:42:30;;;;;;;0.60;0.60;;;5.60;99.90;;;;;;4926984;28;20059;-84
2022/12/30 04:44:56;;;;;;;0.65;0.65;;;5.60;99.90;;;;;;4925045;28;20069;-83
2022/12/30 04:47:21;;;;;;;0.70;0.70;;;5.60;99.90;;;;;;4944920;28;20907;-83
2022/12/30 04:49:47;;;;;;;0.63;0.63;;;5.60;99.90;;;;;;4926650;28;20044;-83
2022/12/30 04:52:13;;;;;;;0.60;0.60;;;5.60;99.90;;;;;;4946638;28;20042;-82
2022/12/30 04:54:39;;;;;;;0.70;0.70;;;5.50;99.90;;;;;;4933880;28;20155;-83
2022/12/30 04:57:04;;;;;;;0.60;0.60;;;5.60;99.90;;;;;;4925080;28;20067;-83
2022/12/30 04:59:30;;;;;;;0.60;0.60;;;5.50;99.90;;;;;;4939686;28;20881;-84
2022/12/30 05:01:57;;;;;;;0.70;0.70;;;5.50;99.90;;;;;;4937146;28;20045;-83
2022/12/30 05:04:22;;;;;;;0.60;0.60;;;5.50;99.90;;;;;;4940453;28;20041;-83
2022/12/30 05:06:48;;;;;;;0.60;0.60;;;5.50;99.90;;;;;;4936206;28;20049;-83
2022/12/30 05:09:14;;;;;;;0.70;0.70;;;5.50;99.90;;;;;;4945863;28;20076;-82
2022/12/30 05:11:40;;;;;;;0.70;0.70;;;5.50;99.90;;;;;;4939902;28;20052;-83
2022/12/30 05:14:06;;;;;;;0.70;0.70;;;5.40;99.90;;;;;;4942947;28;20684;-84
2022/12/30 05:16:32;;;;;;;0.60;0.60;;;5.40;99.90;;;;;;4939269;28;20049;-83
2022/12/30 05:18:58;;;;;;;0.60;0.60;;;5.50;99.90;;;;;;4921110;28;20064;-85
2022/12/30 05:21:23;;;;;;;0.60;0.60;;;5.50;99.90;;;;;;4926096;28;20793;-83
2022/12/30 05:26:33;;;;;;;0.70;0.70;;;5.40;99.90;;;;;;4937001;28;20820;-83
2022/12/30 05:28:59;;;;;;;0.70;0.70;;;5.50;99.90;;;;;;4923390;28;20053;-82
2022/12/30 05:31:25;;;;;;;0.70;0.70;;;5.40;99.90;;;;;;4900753;28;20053;-82
2022/12/30 05:33:51;;;;;;;0.70;0.70;;;5.40;99.90;;;;;;4939935;28;20045;-83
2022/12/30 05:36:17;;;;;;;0.70;0.70;;;5.40;99.90;;;;;;4947600;28;20072;-83
2022/12/30 05:38:42;;;;;;;0.60;0.60;;;5.50;99.90;;;;;;4950998;28;20526;-82
2022/12/30 05:41:10;;;;;;;0.60;0.60;;;5.40;99.90;;;;;;4942375;28;20056;-84
2022/12/30 05:43:36;;;;;;;0.60;0.60;;;5.50;99.90;;;;;;4954679;28;20077;-83
2022/12/30 05:46:02;;;;;;;0.60;0.60;;;5.40;99.90;;;;;;4948148;28;20285;-84
2022/12/30 05:48:28;;;;;;;0.60;0.60;;;5.40;99.90;;;;;;4945827;28;20625;-82
2022/12/30 05:50:54;;;;;;;0.60;0.60;;;5.40;99.90;;;;;;4943994;28;20064;-84
2022/12/30 05:53:20;;;;;;;0.60;0.60;;;5.40;99.90;;;;;;4935627;28;20071;-83
2022/12/30 05:55:46;;;;;;;0.60;0.60;;;5.40;99.90;;;;;;4953452;28;20480;-83
2022/12/30 05:58:11;;;;;;;0.65;0.65;;;5.40;99.90;;;;;;4932232;28;20975;-82
2022/12/30 06:00:38;;;;;;;0.70;0.70;;;5.40;99.90;;;;;;4928221;28;20204;-82
2022/12/30 06:03:04;;;;;;;0.70;0.70;;;5.40;99.90;;;;;;4947917;28;20519;-82
2022/12/30 06:05:30;;;;;;;0.60;0.60;;;5.40;99.90;;;;;;4941519;28;20466;-86
2022/12/30 06:07:56;;;;;;;0.60;0.60;;;5.30;99.90;;;;;;4920625;28;20571;-82
2022/12/30 06:10:22;;;;;;;0.60;0.60;;;5.40;99.90;;;;;;4947678;28;20045;-84
2022/12/30 06:12:48;;;;;;;0.60;0.60;;;5.40;99.90;;;;;;4951090;28;20780;-84
2022/12/30 06:15:14;;;;;;;0.70;0.70;;;5.40;99.90;;;;;;4950648;28;20068;-82
2022/12/30 06:17:40;;;;;;;0.60;0.60;;;5.30;99.90;;;;;;4927369;28;20227;-84
2022/12/30 06:20:07;;;;;;;0.70;0.70;;;5.40;99.90;;;;;;4949051;28;20511;-83
2022/12/30 06:22:33;;;;;;;0.70;0.70;;;5.40;99.90;;;;;;4944417;28;20081;-83
2022/12/30 06:24:59;;;;;;;0.70;0.70;;;5.40;99.90;;;;;;4944518;28;20057;-81
2022/12/30 06:27:25;;;;;;;0.60;0.60;;;5.40;99.90;;;;;;4941957;28;20508;-82
2022/12/30 06:29:51;;;;;;;0.70;0.70;;;5.40;99.90;;;;;;4938234;28;20053;-83
2022/12/30 06:32:17;;;;;;;0.70;0.70;;;5.50;99.90;;;;;;4925959;28;20428;-83
2022/12/30 06:34:43;;;;;;;0.63;0.63;;;5.50;99.90;;;;;;4941143;28;20049;-84
2022/12/30 06:37:09;;;;;;;0.70;0.70;;;5.50;99.90;;;;;;4950821;28;20614;-83
2022/12/30 06:39:35;;;;;;;0.60;0.60;;;5.50;99.90;;;;;;4951374;28;20077;-82
2022/12/30 06:42:00;;;;;;;0.70;0.70;;;5.50;99.90;;;;;;4950959;28;20049;-83
2022/12/30 06:44:26;;;;;;;0.70;0.70;;;5.50;99.90;;;;;;4956755;28;20041;-83
2022/12/30 06:46:52;;;;;;;0.60;0.60;;;5.60;99.90;;;;;;4929398;28;20050;-82
2022/12/30 06:49:18;;;;;;;0.63;0.63;;;5.50;99.90;;;;;;4949444;28;20053;-84
2022/12/30 06:51:44;;;;;;;0.60;0.60;;;5.60;99.90;;;;;;4946376;28;20049;-83
2022/12/30 06:54:09;;;;;;;0.70;0.70;;;5.50;99.90;;;;;;4944791;28;20045;-82
2022/12/30 06:56:35;;;;;;;0.70;0.70;;;5.60;99.90;;;;;;4947779;28;20420;-83
2022/12/30 06:59:01;;;;;;;0.70;0.70;;;5.60;99.90;;;;;;4929974;28;20470;-83
2022/12/30 07:01:27;;;;;;;0.80;0.80;;;5.60;99.90;;;;;;4945982;28;20307;-83
2022/12/30 07:03:53;;;;;;;0.70;0.70;;;5.50;99.90;;;;;;4942388;28;20049;-81
2022/12/30 07:06:18;;;;;;;0.60;0.60;;;5.50;99.90;;;;;;4951752;28;20418;-83
2022/12/30 07:08:44;;;;;;;0.60;0.60;;;5.60;99.90;;;;;;4927201;28;20092;-82
2022/12/30 07:11:10;;;;;;;0.60;0.60;;;5.80;99.90;;;;;;4920266;28;20619;-82
2022/12/30 07:13:36;;;;;;;0.60;0.60;;;5.70;99.90;;;;;;4947469;28;20722;-83
2022/12/30 07:16:02;;;;;;;0.60;0.60;;;5.70;99.90;;;;;;4947355;28;20220;-81
2022/12/30 07:18:27;;;;;;;0.70;0.70;;;5.60;99.90;;;;;;4941116;28;20426;-82
2022/12/30 07:20:53;;;;;;;0.60;0.60;;;5.70;99.90;;;;;;4942967;28;20531;-81
2022/12/30 07:23:20;;;;;;;0.70;0.70;;;5.70;99.90;;;;;;4951314;28;20221;-82
2022/12/30 07:25:47;;;;;;;0.70;0.70;;;5.80;99.90;;;;;;4942504;28;20060;-83
2022/12/30 07:28:13;;;;;;;0.70;0.70;;;5.70;99.90;;;;;;4943960;28;20076;-82
2022/12/30 07:30:40;;;;;;;0.70;0.70;;;5.70;99.90;;;;;;4940504;28;20048;-81
2022/12/30 07:33:06;;;;;;;0.60;0.60;;;5.70;99.90;;;;;;4955690;28;20053;-81
2022/12/30 07:35:32;;;;;;;0.60;0.60;;;5.70;99.90;;;;;;4947520;28;20037;-82
2022/12/30 07:37:58;;;;;;;0.60;0.60;;;5.70;99.90;;;;;;4944253;28;20045;-81
2022/12/30 07:40:24;;;;;;;0.70;0.70;;;5.70;99.90;;;;;;4949420;28;20164;-82
2022/12/30 07:42:50;;;;;;;0.70;0.70;;;5.70;99.90;;;;;;4942868;28;20041;-82
2022/12/30 07:45:16;;;;;;;0.70;0.70;;;5.80;99.90;;;;;;4958513;28;20054;-81
2022/12/30 07:47:43;;;;;;;0.60;0.60;;;5.80;99.90;;;;;;4950837;28;20558;-82
2022/12/30 07:50:11;;;;;;;0.60;0.60;;;5.80;99.90;;;;;;4932861;28;20967;-84
2022/12/30 07:52:37;;;;;;;0.70;0.70;;;5.70;99.90;;;;;;4946779;28;20402;-79
2022/12/30 07:55:03;;;;;;;0.60;0.60;;;5.70;99.90;;;;;;4931344;28;20057;-80
2022/12/30 07:57:29;;;;;;;0.63;0.63;;;5.70;99.90;;;;;;4950118;28;20072;-83
2022/12/30 07:59:56;;;;;;;0.70;0.70;;;5.70;99.90;;;;;;4931984;28;20376;-81
2022/12/30 08:02:22;;;;;;;0.70;0.70;;;5.80;99.90;;;;;;4945584;28;20774;-81
2022/12/30 08:04:48;;;;;;;0.60;0.60;;;5.80;99.90;;;;;;4945011;28;20045;-83
2022/12/30 08:07:18;;;;;;;0.60;0.60;;;5.80;99.90;;;;;;4938799;28;20361;-82
2022/12/30 08:09:45;;;;;;;0.60;0.60;;;5.90;99.90;;;;;;4950594;28;20274;-81
2022/12/30 08:12:11;;;;;;;0.60;0.60;;;5.90;99.90;;;;;;4958870;28;20060;-82
2022/12/30 08:14:37;;;;;;;0.70;0.70;;;6.00;99.90;;;;;;4949915;28;20448;-82
2022/12/30 08:17:03;;;;;;;0.60;0.60;;;6.00;99.90;;;;;;4940639;28;20136;-82
2022/12/30 08:19:30;;;;;;;0.70;0.70;;;6.10;99.90;;;;;;4945314;28;20090;-81
2022/12/30 08:21:56;;;;;;;0.70;0.70;;;6.10;99.90;;;;;;4948848;28;20046;-82
2022/12/30 08:24:22;;;;;;;0.70;0.70;;;6.10;99.90;;;;;;4944630;28;20049;-79
2022/12/30 08:26:58;;;;;;;0.70;0.70;;;6.10;99.90;;;;;;4948694;28;20262;-80
2022/12/30 08:29:23;;;;;;;0.70;0.70;;;6.20;99.90;;;;;;4943570;28;20569;-82
2022/12/30 08:31:49;;;;;;;0.60;0.60;;;6.20;99.90;;;;;;4926576;28;20119;-81
2022/12/30 08:34:19;;;;;;;0.60;0.60;;;6.30;99.90;;;;;;4943589;28;20119;-82
2022/12/30 08:36:46;;;;;;;0.70;0.70;;;6.30;99.90;;;;;;4945357;28;20584;-81
2022/12/30 08:39:12;;;;;;;0.70;0.70;;;6.30;99.90;;;;;;4948344;28;20157;-84
2022/12/30 08:41:41;;;;;;;0.60;0.60;;;6.40;99.90;;;;;;4930688;28;20560;-82
2022/12/30 08:44:08;;;;;;;0.70;0.70;;;6.50;99.90;;;;;;4947605;28;20584;-81
2022/12/30 08:46:37;;;;;;;0.70;0.70;;;6.50;99.90;;;;;;4956521;28;20438;-81
2022/12/30 08:49:04;;;;;;;0.60;0.60;;;6.50;99.90;;;;;;4951683;28;20860;-81
2022/12/30 08:51:30;;;;;;;0.60;0.60;;;6.60;99.90;;;;;;4930513;28;20051;-81
2022/12/30 08:53:56;;;;;;;0.60;0.60;;;6.60;99.90;;;;;;4942588;28;20044;-83
2022/12/30 08:56:27;;;;;;;0.60;0.60;;;6.60;99.90;;;;;;4947901;28;20045;-81
2022/12/30 08:58:54;;;;;;;0.70;0.70;;;6.60;99.90;;;;;;4928051;28;20273;-81
2022/12/30 09:01:29;;;;;;;0.60;0.60;;;6.60;99.90;;;;;;4945741;28;20912;-81
2022/12/30 09:03:56;;;;;;;0.70;0.70;;;6.80;99.90;;;;;;4947183;28;20508;-81
2022/12/30 09:06:25;;;;;;;0.70;0.70;;;6.80;99.90;;;;;;4950026;28;20903;-81
2022/12/30 09:08:51;;;;;;;0.70;0.70;;;6.80;99.90;;;;;;4929852;28;20947;-82
2022/12/30 09:11:23;;;;;;;0.60;0.60;;;6.90;99.90;;;;;;4948908;28;20498;-81
2022/12/30 09:13:49;;;;;;;0.63;0.63;;;7.00;99.90;;;;;;4948534;28;20507;-81
2022/12/30 09:16:18;;;;;;;0.60;0.60;;;7.00;99.90;;;;;;4950918;28;20177;-81
2022/12/30 09:18:44;;;;;;;0.60;0.60;;;7.00;99.90;;;;;;4955383;28;20053;-82
2022/12/30 09:21:10;;;;;;;0.65;0.65;;;7.00;99.90;;;;;;4958171;28;20067;-79
2022/12/30 09:23:36;;;;;;;0.60;0.60;;;7.10;99.90;;;;;;4950498;28;20049;-80
2022/12/30 09:26:04;;;;;;;0.63;0.63;;;7.20;99.90;;;;;;4954143;28;20050;-80
2022/12/30 09:28:30;;;;;;;0.60;0.60;;;7.20;99.90;;;;;;4942333;28;20590;-85
2022/12/30 09:30:56;;;;;;;0.70;0.70;;;7.30;99.90;;;;;;4931822;28;20327;-81
2022/12/30 09:33:22;;;;;;;0.70;0.70;;;7.30;99.90;;;;;;4942826;28;20538;-83
2022/12/30 09:35:48;;;;;;;0.60;0.60;;;7.30;99.90;;;;;;4927783;28;20041;-82
2022/12/30 09:38:14;;;;;;;0.63;0.63;;;7.40;99.90;;;;;;4936746;28;20435;-81
2022/12/30 09:40:57;;;;;;;0.60;0.60;;;7.40;99.90;;;;;;4952319;28;20048;-80
2022/12/30 09:43:57;;;;;;;0.70;0.70;;;7.40;99.90;;;;;;4942428;28;20932;-82
2022/12/30 09:46:44;;;;;;;0.60;0.60;;;7.50;99.90;;;;;;4949193;28;20731;-82
2022/12/30 09:49:37;;;;;;;0.60;0.60;;;7.50;99.90;;;;;;4941849;28;20429;-80
2022/12/30 09:52:21;;;;;;;0.60;0.60;;;7.50;99.90;;;;;;4946989;28;20049;-80
2022/12/30 09:55:05;;;;;;;0.60;0.60;;;7.50;99.90;;;;;;4940930;28;20053;-82
2022/12/30 09:57:35;;;;;;;;;;;7.60;99.90;;;;;;4959078;28;20053;-81
2022/12/30 10:00:22;;;;;;;0.60;0.60;;;7.70;99.90;;;;;;4948782;28;22304;-80
2022/12/30 10:03:12;;;;;;;0.60;0.60;;;7.70;99.90;;;;;;4943424;28;20111;-82
2022/12/30 10:06:09;;;;;;;0.60;0.60;;;7.70;99.90;;;;;;4942176;28;20998;-81
2022/12/30 10:08:51;;;;;;;0.60;0.60;;;7.80;99.90;;;;;;4943397;28;20081;-83
2022/12/30 10:11:27;;;;;;;0.60;0.60;;;7.80;99.90;;;;;;4941322;28;20573;-82
2022/12/30 10:14:46;;;;;;;0.60;0.60;;;7.90;99.90;;;;;;4946298;28;20105;-80
2022/12/30 10:17:27;;;;;;;0.60;0.60;;;7.90;99.90;;;;;;4930932;28;20198;-81
2022/12/30 10:20:05;;;;;;;0.70;0.70;;;8.00;99.90;;;;;;4950979;28;20270;-82
2022/12/30 10:22:36;;;;;;;0.60;0.60;;;8.00;99.90;;;;;;4949477;28;20526;-81
2022/12/30 10:25:11;;;;;;;0.60;0.60;;;8.10;99.90;;;;;;4944750;28;20229;-83
2022/12/30 10:27:50;;;;;;;0.60;0.60;;;8.10;99.90;;;;;;4940648;28;20069;-82
2022/12/30 10:30:22;;;;;;;0.60;0.60;;;8.20;99.90;;;;;;4960356;28;20777;-82
2022/12/30 10:32:55;;;;;;;0.60;0.60;;;8.20;99.90;;;;;;4939517;28;20068;-84
2022/12/30 10:35:25;;;;;;;0.60;0.60;;;8.30;99.90;;;;;;4942508;28;20124;-81
2022/12/30 10:38:08;;;;;;;0.60;0.60;;;8.30;99.90;;;;;;4950473;28;20114;-81
2022/12/30 10:41:06;;;;;;;0.60;0.60;;;8.40;99.90;;;;;;4963799;28;20045;-83
2022/12/30 10:43:48;;;;;;;0.60;0.60;;;8.50;99.90;;;;;;4938187;28;20294;-85
2022/12/30 10:46:40;;;;;;;0.60;0.60;;;8.50;99.90;;;;;;4920367;28;20044;-82
2022/12/30 10:49:24;;;;;;;0.60;0.60;;;8.50;99.90;;;;;;4938497;28;20757;-82
2022/12/30 10:51:50;;;;;;;0.52;0.52;;;8.60;99.90;;;;;;4955694;28;20575;-81
2022/12/30 10:54:16;;;;;;;0.60;0.60;;;8.60;99.90;;;;;;4939536;28;20618;-81
2022/12/30 10:56:44;;;;;;;0.52;0.52;;;8.60;99.90;;;;;;4942360;28;20042;-83
2022/12/30 10:59:13;;;;;;;0.60;0.60;;;8.60;99.90;;;;;;4924779;28;20453;-82
2022/12/30 11:01:42;;;;;;;0.60;0.60;;;8.60;99.90;;;;;;4941552;28;20099;-81
2022/12/30 11:04:39;;;;;;;0.60;0.60;;;8.70;99.90;;;;;;4963453;28;20860;-84
2022/12/30 11:07:14;;;;;;;0.60;0.60;;;8.70;99.90;;;;;;4943142;28;20045;-81
2022/12/30 11:09:41;;;;;;;0.60;0.60;;;8.80;99.90;;;;;;4941067;28;20053;-83
2022/12/30 11:15:15;;;;;;;0.60;0.60;;;8.90;99.90;;;;;;4946890;28;20167;-81
2022/12/30 11:17:44;;;;;;;0.60;0.60;;;9.00;99.90;;;;;;4953158;28;20056;-82
2022/12/30 11:20:13;;;;;;;0.60;0.60;;;9.00;99.90;;;;;;4953333;28;20388;-82
2022/12/30 11:22:51;;;;;;;0.60;0.60;;;9.10;99.90;;;;;;4959192;28;20072;-83
2022/12/30 11:25:42;;;;;;;0.60;0.60;;;9.10;99.90;;;;;;4936600;28;20049;-83
2022/12/30 11:28:22;;;;;;;0.60;0.60;;;9.10;99.90;;;;;;4961466;28;20049;-80
2022/12/30 11:30:51;;;;;;;0.60;0.60;;;9.10;99.90;;;;;;4945220;28;20132;-81
2022/12/30 11:33:23;;;;;;;0.60;0.60;;;9.20;99.90;;;;;;4969316;28;20115;-82
2022/12/30 11:35:50;;;;;;;0.52;0.52;;;9.20;99.90;;;;;;4984687;28;20045;-83
2022/12/30 11:38:37;;;;;;;0.60;0.60;;;9.20;99.90;;;;;;4949632;28;20064;-79
2022/12/30 11:41:18;;;;;;;0.60;0.60;;;9.20;99.90;;;;;;4932845;28;20148;-81
2022/12/30 11:44:11;;;;;;;0.60;0.60;;;9.20;99.90;;;;;;4949921;28;20140;-81
2022/12/30 11:46:38;;;;;;;0.60;0.60;;;9.30;99.90;;;;;;4927799;28;20049;-83
2022/12/30 11:49:19;;;;;;;0.52;0.52;;;9.30;99.90;;;;;;4946811;28;20492;-81
2022/12/30 11:51:50;;;;;;;0.60;0.60;;;9.30;99.90;;;;;;4951373;28;20803;-84
2022/12/30 11:54:20;;;;;;;0.60;0.60;;;9.30;99.90;;;;;;4946013;28;20080;-84
2022/12/30 11:57:17;;;;;;;0.60;0.60;;;9.30;99.90;;;;;;4950211;28;20061;-80
2022/12/30 11:59:48;;;;;;;0.60;0.60;;;9.30;99.90;;;;;;4945931;28;20087;-82
2022/12/30 12:02:23;;;;;;;0.60;0.60;;;9.30;99.90;;;;;;4948473;28;20459;-82
2022/12/30 12:04:49;;;;;;;0.60;0.60;;;9.40;99.90;;;;;;4952189;28;20052;-82
2022/12/30 12:07:20;;;;;;;0.60;0.60;;;9.40;99.90;;;;;;4944046;28;20508;-82
2022/12/30 12:09:57;;;;;;;0.60;0.60;;;9.40;99.90;;;;;;4945120;28;20925;-81
2022/12/30 12:12:27;;;;;;;0.60;0.60;;;9.50;99.90;;;;;;4942098;28;20122;-83
2022/12/30 12:15:25;;;;;;;0.60;0.60;;;9.50;99.90;;;;;;4939323;28;20068;-81
2022/12/30 12:18:02;;;;;;;0.60;0.60;;;9.50;99.90;;;;;;4933924;28;20080;-81
2022/12/30 12:20:54;;;;;;;0.60;0.60;;;9.50;99.90;;;;;;4938442;28;20286;-80
2022/12/30 12:23:33;;;;;;;0.60;0.60;;;9.40;99.90;;;;;;4942876;28;20061;-81
2022/12/30 12:26:07;;;;;;;0.50;0.50;;;9.50;99.90;;;;;;4927116;28;20056;-80
2022/12/30 12:28:36;;;;;;;0.60;0.60;;;9.50;99.90;;;;;;4948373;28;20506;-80
2022/12/30 12:31:12;;;;;;;0.60;0.60;;;9.50;99.90;;;;;;4942179;28;20056;-80
2022/12/30 12:33:48;;;;;;;0.60;0.60;;;9.50;99.90;;;;;;4943769;28;20088;-80
2022/12/30 12:36:18;;;;;;;0.60;0.60;;;9.50;99.90;;;;;;4947826;28;20107;-81
2022/12/30 12:39:02;;;;;;;0.60;0.60;;;9.50;99.90;;;;;;4949880;28;20110;-81
2022/12/30 12:41:52;;;;;;;0.60;0.60;;;9.50;99.90;;;;;;4927757;28;20056;-81
2022/12/30 12:44:43;;;;;;;0.60;0.60;;;9.50;99.90;;;;;;4939318;28;20061;-78
2022/12/30 12:47:30;;;;;;;0.55;0.55;;;9.50;99.90;;;;;;4959156;28;20064;-80
2022/12/30 12:50:02;;;;;;;0.60;0.60;;;9.50;99.90;;;;;;4947479;28;20111;-79
2022/12/30 12:52:43;;;;;;;0.60;0.60;;;9.50;99.90;;;;;;4934042;28;20045;-80
2022/12/30 12:55:21;;;;;;;0.50;0.50;;;9.50;99.90;;;;;;4934462;28;20568;-81
2022/12/30 12:58:17;;;;;;;0.60;0.60;;;9.50;99.90;;;;;;4943197;28;20049;-83
2022/12/30 13:00:49;;;;;;;0.60;0.60;;;9.50;99.90;;;;;;4936702;28;20048;-83
2022/12/30 13:03:25;;;;;;;0.60;0.60;;;9.60;99.90;;;;;;4925206;28;20057;-79
2022/12/30 13:06:08;;;;;;;0.60;0.60;;;9.60;99.90;;;;;;4945667;28;20049;-82
2022/12/30 13:08:53;;;;;;;0.60;0.60;;;9.60;99.90;;;;;;4942993;28;20049;-80
2022/12/30 13:11:36;;;;;;;0.60;0.60;;;9.60;99.90;;;;;;4945021;28;20499;-85
2022/12/30 13:14:30;;;;;;;0.60;0.60;;;9.50;99.90;;;;;;4943275;28;20048;-79
2022/12/30 13:17:00;;;;;;;0.60;0.60;;;9.50;99.90;;;;;;4937890;28;20084;-78
2022/12/30 13:19:35;;;;;;;0.60;0.60;;;9.50;99.90;;;;;;4937684;28;20437;-78
2022/12/30 13:22:14;;;;;;;0.50;0.50;;;9.60;99.90;;;;;;4941357;28;20455;-79
2022/12/30 13:24:49;;;;;;;0.60;0.60;;;9.60;99.90;;;;;;4942709;28;20237;-77
2022/12/30 13:27:28;;;;;;;0.60;0.60;;;9.60;99.90;;;;;;4939880;28;20052;-78
2022/12/30 13:29:56;;;;;;;0.50;0.50;;;9.60;99.90;;;;;;4919378;28;20053;-79
2022/12/30 13:32:46;;;;;;;0.50;0.50;;;9.60;99.90;;;;;;4939473;28;20076;-79
2022/12/30 13:35:30;;;;;;;0.60;0.60;;;9.60;99.90;;;;;;4939046;28;20049;-77
2022/12/30 13:38:05;;;;;;;0.57;0.57;;;9.60;99.90;;;;;;4944523;28;20119;-78
2022/12/30 13:40:48;;;;;;;0.60;0.60;;;9.70;99.90;;;;;;4939685;28;20113;-80
2022/12/30 13:43:23;;;;;;;0.57;0.57;;;9.60;99.90;;;;;;4944207;28;20528;-80
2022/12/30 13:45:53;;;;;;;0.60;0.60;;;9.60;99.90;;;;;;4939074;28;20076;-80
2022/12/30 13:48:22;;;;;;;0.60;0.60;;;9.60;99.90;;;;;;4925556;28;20123;-80
2022/12/30 13:51:03;;;;;;;0.60;0.60;;;9.70;99.90;;;;;;4936212;28;20441;-79
2022/12/30 13:53:46;;;;;;;0.50;0.50;;;9.60;99.90;;;;;;4940273;28;20051;-79
2022/12/30 13:56:31;;;;;;;0.50;0.50;;;9.60;99.90;;;;;;4944592;28;20041;-81
2022/12/30 13:58:57;;;;;;;0.60;0.60;;;9.60;99.90;;;;;;4941092;28;20757;-80
2022/12/30 14:01:27;;;;;;;0.50;0.50;;;9.70;99.90;;;;;;4936006;28;20107;-79
2022/12/30 14:04:12;;;;;;;0.60;0.60;;;9.70;99.90;;;;;;4944909;28;20048;-80
2022/12/30 14:06:52;;;;;;;0.60;0.60;;;9.80;99.90;;;;;;4934929;28;20504;-80
2022/12/30 14:09:21;;;;;;;0.60;0.60;;;9.90;99.90;;;;;;4941223;28;20148;-81
2022/12/30 14:12:08;;;;;;;0.60;0.60;;;10.00;99.90;;;;;;4950610;28;20033;-80
2022/12/30 14:14:52;;;;;;;0.60;0.60;;;10.00;99.90;;;;;;4939432;28;20599;-78
2022/12/30 14:17:38;;;;;;;0.50;0.50;;;10.00;99.90;;;;;;4933925;28;20793;-81
2022/12/30 14:20:21;;;;;;;0.50;0.50;;;10.00;99.90;;;;;;4946312;28;20052;-83